ADDS METAR Data INFO
IDs: Format: Raw Decoded Include TAF

Data at: 1011 UTC 14 Dec 2017

KDMW 140945Z AUTO 24003KT 10SM OVC046 M01/M06 A2947 RMK AO2
KDMW 140925Z AUTO 22007KT 10SM OVC048 M01/M06 A2947 RMK AO2
KDMW 140905Z AUTO 20006KT 10SM OVC055 M01/M06 A2945 RMK AO2
KDMW 140845Z AUTO 18007KT 10SM SCT048 OVC055 M01/M06 A2945 RMK AO2
KDMW 140825Z AUTO 18004KT 10SM OVC048 M01/M06 A2946 RMK AO2
KDMW 140805Z AUTO 17005KT 10SM OVC048 M02/M06 A2947 RMK AO2
KDMW 140745Z AUTO 15005KT 10SM OVC048 M02/M05 A2947 RMK AO2
KDMW 140725Z AUTO 13005KT 10SM OVC048 M02/M06 A2947 RMK AO2
KDMW 140705Z AUTO 15005KT 10SM OVC048 M02/M06 A2948 RMK AO2
KDMW 140645Z AUTO 15006KT 10SM SCT050 BKN075 OVC110 M02/M05 A2948 RMK AO2
KDMW 140625Z AUTO 14005KT 10SM SCT060 BKN075 OVC080 M02/M05 A2949 RMK AO2
KDMW 140605Z AUTO 15006KT 10SM BKN060 BKN065 OVC110 M03/M04 A2950 RMK AO2
KDMW 140545Z AUTO 14007KT 10SM BKN060 BKN090 OVC110 M03/M04 A2951 RMK AO2
KDMW 140525Z AUTO 13007KT 10SM SCT060 OVC110 M03/M04 A2952 RMK AO2
KDMW 140505Z AUTO 13007KT 10SM SCT050 BKN070 OVC110 M03/M04 A2953 RMK AO2
KDMW 140445Z AUTO 14006KT 10SM SCT060 SCT070 OVC100 M03/M04 A2954 RMK AO2
KDMW 140425Z AUTO 15005KT 10SM SCT070 OVC090 M03/M04 A2956 RMK AO2
KDMW 140405Z AUTO 16006KT 10SM OVC090 M03/M04 A2956 RMK AO2
KDMW 140345Z AUTO 13007KT 10SM SCT047 SCT060 OVC100 M03/M04 A2956 RMK AO2
KDMW 140325Z AUTO 14005KT 10SM SCT048 OVC060 M03/M03 A2958 RMK AO2
KDMW 140305Z AUTO 00000KT 10SM SCT024 BKN050 OVC070 M03/M04 A2961 RMK AO2
KDMW 140245Z AUTO 17003KT 4SM -SN SCT008 BKN023 OVC050 M03/M04 A2962 RMK AO2 P0001
KDMW 140225Z AUTO 17005KT 1 1/4SM SN OVC006 M03/M04 A2961 RMK AO2
KDMW 140205Z AUTO 17005KT 1 1/4SM -SN BKN006 OVC012 M03/M04 A2962 RMK AO2
KDMW 140145Z AUTO 18004KT 2SM -SN BKN010 OVC015 M03/M05 A2963 RMK AO2
KDMW 140125Z AUTO 20010KT 2 1/2SM -SN BKN013 OVC026 M03/M06 A2964 RMK AO2 VIS 1 3/4V3
KDMW 140105Z AUTO 20009G15KT 10SM BKN025 BKN030 OVC037 M02/M09 A2963 RMK AO2
KDMW 140045Z AUTO 20003KT 10SM SCT029 OVC037 M02/M11 A2964 RMK AO2
KDMW 140025Z AUTO 17004KT 10SM SCT032 BKN041 OVC080 M02/M11 A2965 RMK AO2
KDMW 140005Z AUTO 18004KT 10SM SCT070 BKN090 120 M02/M12 A2966 RMK AO2
KDMW 132345Z AUTO 16004KT 10SM SCT060 BKN070 OVC090 M02/M12 A2967 RMK AO2
KDMW 132325Z AUTO 00000KT 10SM SCT050 SCT060 OVC080 M03/M12 A2967 RMK AO2
KDMW 132305Z AUTO 00000KT 10SM BKN080 BKN090 M03/M12 A2968 RMK AO2
KDMW 132245Z AUTO 00000KT 10SM SCT090 M03/M12 A2969 RMK AO2
KDMW 132225Z AUTO 25005KT 10SM CLR M03/M12 A2969 RMK AO2
KDMW 132205Z AUTO 26004KT 10SM CLR M02/M13 A2970 RMK AO2
KDMW 132145Z AUTO 24005KT 10SM CLR M02/M13 A2971 RMK AO2
KDMW 132125Z AUTO 25007KT 10SM CLR M02/M13 A2971 RMK AO2
KDMW 132105Z AUTO 27009KT 10SM CLR M02/M14 A2970 RMK AO2
KDMW 132045Z AUTO 28012KT 10SM CLR M02/M14 A2971 RMK AO2
KDMW 132025Z AUTO 28010G14KT 10SM CLR M02/M14 A2970 RMK AO2
KDMW 132005Z AUTO 25009KT 10SM CLR M02/M14 A2970 RMK AO2
KDMW 131945Z AUTO 27011G19KT 10SM CLR M02/M14 A2970 RMK AO2
KDMW 131925Z AUTO 27011G18KT 10SM CLR M02/M14 A2971 RMK AO2
KDMW 131905Z AUTO 27009G18KT 10SM CLR M03/M15 A2972 RMK AO2
KDMW 131845Z AUTO 27011G17KT 10SM CLR M03/M15 A2972 RMK AO2
KDMW 131825Z AUTO 26015G21KT 10SM CLR M03/M15 A2971 RMK AO2
KDMW 131805Z AUTO 28011G18KT 10SM CLR M03/M15 A2972 RMK AO2
KDMW 131745Z AUTO 27014G24KT 10SM CLR M03/M15 A2972 RMK AO2
KDMW 131725Z AUTO 28013G19KT 10SM CLR M03/M15 A2972 RMK AO2
KDMW 131705Z AUTO 28014G20KT 10SM CLR M04/M15 A2973 RMK AO2
KDMW 131645Z AUTO 28019G26KT 10SM CLR M04/M15 A2974 RMK AO2
KDMW 131625Z AUTO 29019G24KT 10SM CLR M04/M16 A2975 RMK AO2
KDMW 131605Z AUTO 28018G26KT 10SM CLR M04/M16 A2975 RMK AO2
KDMW 131545Z AUTO 29020G27KT 10SM CLR M04/M16 A2975 RMK AO2
KDMW 131525Z AUTO 29016G28KT 260V320 10SM CLR M05/M15 A2975 RMK AO2
KDMW 131505Z AUTO 29016G28KT 10SM CLR M05/M15 A2975 RMK AO2
KDMW 131445Z AUTO 29020G32KT 10SM CLR M06/M15 A2975 RMK AO2
KDMW 131425Z AUTO 29017G32KT 10SM CLR M06/M15 A2975 RMK AO2
KDMW 131405Z AUTO 30019G27KT 10SM CLR M06/M15 A2974 RMK AO2
KDMW 131345Z AUTO 29018G27KT 10SM CLR M06/M15 A2973 RMK AO2
KDMW 131325Z AUTO 28016G24KT 10SM CLR M07/M15 A2973 RMK AO2
KDMW 131305Z AUTO 27012G23KT 10SM CLR M07/M15 A2973 RMK AO2
KDMW 131245Z AUTO 27012G23KT 240V300 10SM SCT049 M07/M15 A2973 RMK AO2
KDMW 131225Z AUTO 28016G24KT 10SM BKN049 M07/M15 A2973 RMK AO2
KDMW 131205Z AUTO 28010G20KT 250V310 10SM BKN047 M07/M15 A2973 RMK AO2
KDMW 131145Z AUTO 28016G25KT 10SM SCT049 M07/M15 A2972 RMK AO2
KDMW 131125Z AUTO 28016G22KT 10SM SCT049 M07/M15 A2971 RMK AO2
KDMW 131105Z AUTO 28013G22KT 10SM SCT049 M07/M15 A2971 RMK AO2
KDMW 131045Z AUTO 29016G25KT 10SM SCT045 M07/M15 A2970 RMK AO2
KDMW 131025Z AUTO 28018G26KT 10SM CLR M07/M15 A2969 RMK AO2
KDMW 131005Z AUTO 28014G26KT 10SM SCT049 M07/M15 A2968 RMK AO2
KDMW 130945Z AUTO 29012G17KT 10SM SCT049 M07/M15 A2969 RMK AO2
KDMW 130925Z AUTO 28015G22KT 10SM CLR M07/M15 A2968 RMK AO2
KDMW 130845Z AUTO 29016G29KT 10SM CLR M07/M15 A2968 RMK AO2
KDMW 130825Z AUTO 28015G25KT 260V320 10SM CLR M07/M14 A2968 RMK AO2
KDMW 130805Z AUTO 27010G14KT 10SM SCT046 M08/M13 A2969 RMK AO2
KDMW 130745Z AUTO 28013G20KT 10SM CLR M07/M13 A2969 RMK AO2
KDMW 130725Z AUTO 29014G22KT 10SM SCT050 M07/M13 A2969 RMK AO2
KDMW 130705Z AUTO 29010G18KT 10SM BKN050 M07/M14 A2968 RMK AO2
KDMW 130645Z AUTO 29010G14KT 10SM SCT050 M07/M14 A2968 RMK AO2
KDMW 130625Z AUTO 31017G28KT 10SM CLR M07/M15 A2968 RMK AO2
KDMW 130605Z AUTO 30011G21KT 10SM CLR M07/M16 A2966 RMK AO2 LTG DSNT SE
KDMW 130545Z AUTO 30017G29KT 10SM CLR M07/M17 A2966 RMK AO2
KDMW 130525Z AUTO 30019G27KT 10SM SCT050 M07/M17 A2966 RMK AO2
KDMW 130505Z AUTO 30016G30KT 10SM BKN050 BKN055 M06/M17 A2966 RMK AO2 LTG DSNT SE
KDMW 130445Z AUTO 31014G22KT 10SM BKN050 M06/M15 A2966 RMK AO2
KDMW 130425Z AUTO 30019G31KT 10SM CLR M06/M16 A2966 RMK AO2 LTG DSNT SE
KDMW 130405Z AUTO 31012G28KT 10SM SCT060 M06/M16 A2966 RMK AO2
KDMW 130345Z AUTO 31019G27KT 10SM SCT060 M06/M16 A2966 RMK AO2 LTG DSNT SE
KDMW 130325Z AUTO 30017G30KT 10SM CLR M06/M15 A2966 RMK AO2 LTG DSNT SE
KDMW 130305Z AUTO 31012G26KT 10SM SCT050 M06/M14 A2966 RMK AO2 LTG DSNT SE
KDMW 130245Z AUTO 31014G27KT 10SM SCT060 M05/M14 A2966 RMK AO2 LTG DSNT SE
KDMW 130225Z AUTO 31014G20KT 10SM CLR M05/M13 A2965 RMK AO2
KDMW 130205Z AUTO 30018G26KT 10SM CLR M04/M13 A2966 RMK AO2
KDMW 130145Z AUTO 31020G31KT 10SM SCT045 SCT050 M04/M13 A2967 RMK AO2 LTG DSNT SE
KDMW 130125Z AUTO 31011G26KT 10SM SCT045 SCT050 M04/M13 A2966 RMK AO2
KDMW 130105Z AUTO 30016G25KT 10SM SCT043 BKN050 M03/M13 A2966 RMK AO2 LTG DSNT SE
KDMW 130045Z AUTO 30019G33KT 10SM BKN043 BKN050 M03/M09 A2966 RMK AO2 LTG DSNT SE
KDMW 130025Z AUTO 31018G26KT 10SM SCT040 SCT049 M02/M09 A2964 RMK AO2 LTG DSNT E AND SE
KDMW 130005Z AUTO 30016G22KT 10SM CLR M02/M10 A2964 RMK AO2 LTG DSNT SE
KDMW 122345Z AUTO 30017G26KT 10SM SCT049 M01/M10 A2962 RMK AO2 LTG DSNT SE
KDMW 122325Z AUTO 31010G25KT 10SM BKN044 M01/M09 A2962 RMK AO2 LTG DSNT SE
KDMW 122305Z AUTO 30012G23KT 10SM BKN042 01/M08 A2960 RMK AO2 LTG DSNT E THRU S
KDMW 122245Z AUTO 29012G16KT 10SM SCT042 01/M07 A2960 RMK AO2 LTG DSNT SE
KDMW 122225Z AUTO 30013G20KT 10SM SCT044 SCT050 SCT100 02/M06 A2958 RMK AO2